sensor_id;sensor_type;location;lat;lon;timestamp;pressure;altitude;pressure_sealevel;temperature;humidity
41254;BME280;26987;59.928;30.306;2023-02-12T00:00:08;101636.16;;;-6.90;94.48
41254;BME280;26987;59.928;30.306;2023-02-12T00:02:42;101621.41;;;-7.10;94.06
41254;BME280;26987;59.928;30.306;2023-02-12T00:05:10;101649.69;;;-7.01;94.59
41254;BME280;26987;59.928;30.306;2023-02-12T00:07:38;101643.06;;;-7.08;94.65
41254;BME280;26987;59.928;30.306;2023-02-12T00:10:06;101644.16;;;-7.14;94.27
41254;BME280;26987;59.928;30.306;2023-02-12T00:12:34;101643.00;;;-7.27;94.42
41254;BME280;26987;59.928;30.306;2023-02-12T00:15:03;101662.63;;;-7.18;94.81
41254;BME280;26987;59.928;30.306;2023-02-12T00:17:32;101676.56;;;-7.19;94.93
41254;BME280;26987;59.928;30.306;2023-02-12T00:20:02;101681.09;;;-7.23;95.47
41254;BME280;26987;59.928;30.306;2023-02-12T00:22:30;101671.84;;;-7.30;94.99
41254;BME280;26987;59.928;30.306;2023-02-12T00:24:58;101684.00;;;-7.31;95.54
41254;BME280;26987;59.928;30.306;2023-02-12T00:27:26;101707.97;;;-7.23;95.62
41254;BME280;26987;59.928;30.306;2023-02-12T00:29:53;101704.53;;;-7.23;95.45
41254;BME280;26987;59.928;30.306;2023-02-12T00:32:21;101704.75;;;-7.28;95.02
41254;BME280;26987;59.928;30.306;2023-02-12T00:34:50;101709.81;;;-7.25;95.78
41254;BME280;26987;59.928;30.306;2023-02-12T00:37:18;101709.81;;;-7.25;95.27
41254;BME280;26987;59.928;30.306;2023-02-12T00:39:46;101718.41;;;-7.23;95.40
41254;BME280;26987;59.928;30.306;2023-02-12T00:42:14;101710.78;;;-7.27;95.65
41254;BME280;26987;59.928;30.306;2023-02-12T00:44:42;101719.31;;;-7.24;94.98
41254;BME280;26987;59.928;30.306;2023-02-12T00:47:10;101728.91;;;-7.24;95.00
41254;BME280;26987;59.928;30.306;2023-02-12T00:49:38;101738.50;;;-7.25;95.11
41254;BME280;26987;59.928;30.306;2023-02-12T00:52:07;101735.22;;;-7.30;94.45
41254;BME280;26987;59.928;30.306;2023-02-12T00:54:35;101744.72;;;-7.29;94.78
41254;BME280;26987;59.928;30.306;2023-02-12T00:57:03;101743.09;;;-7.31;94.52
41254;BME280;26987;59.928;30.306;2023-02-12T00:59:31;101740.81;;;-7.39;94.80
41254;BME280;26987;59.928;30.306;2023-02-12T01:02:01;101746.69;;;-7.34;94.84
41254;BME280;26987;59.928;30.306;2023-02-12T01:04:29;101751.06;;;-7.35;95.06
41254;BME280;26987;59.928;30.306;2023-02-12T01:06:57;101750.16;;;-7.33;94.87
41254;BME280;26987;59.928;30.306;2023-02-12T01:09:26;101720.56;;;-7.53;95.20
41254;BME280;26987;59.928;30.306;2023-02-12T01:11:54;101741.34;;;-7.31;95.00
41254;BME280;26987;59.928;30.306;2023-02-12T01:14:22;101742.22;;;-7.30;94.78
41254;BME280;26987;59.928;30.306;2023-02-12T01:16:50;101744.72;;;-7.29;94.90
41254;BME280;26987;59.928;30.306;2023-02-12T01:19:18;101754.28;;;-7.28;95.14
41254;BME280;26987;59.928;30.306;2023-02-12T01:21:46;101760.53;;;-7.32;94.89
41254;BME280;26987;59.928;30.306;2023-02-12T01:24:14;101769.13;;;-7.30;95.27
41254;BME280;26987;59.928;30.306;2023-02-12T01:26:43;101770.78;;;-7.29;94.38
41254;BME280;26987;59.928;30.306;2023-02-12T01:29:11;101783.06;;;-7.31;94.70
41254;BME280;26987;59.928;30.306;2023-02-12T01:31:40;101784.88;;;-7.33;93.85
41254;BME280;26987;59.928;30.306;2023-02-12T01:34:09;101785.94;;;-7.37;94.00
41254;BME280;26987;59.928;30.306;2023-02-12T01:36:38;101786.91;;;-7.40;94.50
41254;BME280;26987;59.928;30.306;2023-02-12T01:39:06;101802.56;;;-7.40;94.67
41254;BME280;26987;59.928;30.306;2023-02-12T01:41:38;101790.81;;;-7.50;95.25
41254;BME280;26987;59.928;30.306;2023-02-12T01:44:11;101792.81;;;-7.57;94.73
41254;BME280;26987;59.928;30.306;2023-02-12T01:46:40;101781.06;;;-7.67;95.46
41254;BME280;26987;59.928;30.306;2023-02-12T01:49:12;101818.63;;;-7.51;95.28
41254;BME280;26987;59.928;30.306;2023-02-12T01:51:41;101829.66;;;-7.44;94.94
41254;BME280;26987;59.928;30.306;2023-02-12T01:54:14;101839.09;;;-7.41;95.29
41254;BME280;26987;59.928;30.306;2023-02-12T01:56:44;101839.94;;;-7.41;94.85
41254;BME280;26987;59.928;30.306;2023-02-12T01:59:13;101841.03;;;-7.47;94.47
41254;BME280;26987;59.928;30.306;2023-02-12T02:01:41;101841.38;;;-7.56;94.66
41254;BME280;26987;59.928;30.306;2023-02-12T02:04:12;101855.16;;;-7.52;94.29
41254;BME280;26987;59.928;30.306;2023-02-12T02:06:46;101839.81;;;-7.60;95.11
41254;BME280;26987;59.928;30.306;2023-02-12T02:09:16;101852.66;;;-7.55;94.97
41254;BME280;26987;59.928;30.306;2023-02-12T02:11:45;101861.34;;;-7.55;95.25
41254;BME280;26987;59.928;30.306;2023-02-12T02:14:32;101778.75;;;-7.98;95.36
41254;BME280;26987;59.928;30.306;2023-02-12T02:17:23;101861.88;;;-7.47;95.44
41254;BME280;26987;59.928;30.306;2023-02-12T02:20:38;101862.75;;;-7.46;95.62
41254;BME280;26987;59.928;30.306;2023-02-12T02:26:53;101876.63;;;-7.45;95.85
41254;BME280;26987;59.928;30.306;2023-02-12T02:32:28;101870.06;;;-7.56;95.51
41254;BME280;26987;59.928;30.306;2023-02-12T02:35:01;101864.06;;;-7.58;95.91
41254;BME280;26987;59.928;30.306;2023-02-12T02:37:36;101877.09;;;-7.58;96.10
41254;BME280;26987;59.928;30.306;2023-02-12T02:40:10;101875.25;;;-7.56;96.07
41254;BME280;26987;59.928;30.306;2023-02-12T02:42:42;101882.19;;;-7.55;96.33
41254;BME280;26987;59.928;30.306;2023-02-12T02:45:13;101881.41;;;-7.57;96.50
41254;BME280;26987;59.928;30.306;2023-02-12T02:47:46;101861.69;;;-7.64;96.19
41254;BME280;26987;59.928;30.306;2023-02-12T02:50:17;101865.22;;;-7.65;95.69
41254;BME280;26987;59.928;30.306;2023-02-12T02:52:49;101877.34;;;-7.64;95.91
41254;BME280;26987;59.928;30.306;2023-02-12T02:55:22;101882.59;;;-7.66;96.15
41254;BME280;26987;59.928;30.306;2023-02-12T02:57:55;101876.66;;;-7.69;96.30
41254;BME280;26987;59.928;30.306;2023-02-12T03:00:30;101884.63;;;-7.73;96.52
41254;BME280;26987;59.928;30.306;2023-02-12T03:03:14;101896.25;;;-7.59;96.51
41254;BME280;26987;59.928;30.306;2023-02-12T03:05:49;101901.59;;;-7.62;96.35
41254;BME280;26987;59.928;30.306;2023-02-12T03:08:20;101900.91;;;-7.67;96.55
41254;BME280;26987;59.928;30.306;2023-02-12T03:10:53;101880.78;;;-7.86;96.52
41254;BME280;26987;59.928;30.306;2023-02-12T03:13:25;101908.66;;;-7.66;96.86
41254;BME280;26987;59.928;30.306;2023-02-12T03:15:58;101913.81;;;-7.64;96.53
41254;BME280;26987;59.928;30.306;2023-02-12T03:18:31;101905.06;;;-7.63;96.88
41254;BME280;26987;59.928;30.306;2023-02-12T03:21:02;101877.19;;;-7.83;96.45
41254;BME280;26987;59.928;30.306;2023-02-12T03:23:36;101927.44;;;-7.57;96.26
41254;BME280;26987;59.928;30.306;2023-02-12T03:26:10;101925.16;;;-7.65;96.40
41254;BME280;26987;59.928;30.306;2023-02-12T03:28:39;101938.19;;;-7.65;96.06
41254;BME280;26987;59.928;30.306;2023-02-12T03:31:10;101937.25;;;-7.64;96.10
41254;BME280;26987;59.928;30.306;2023-02-12T03:33:47;101948.66;;;-7.67;96.37
41254;BME280;26987;59.928;30.306;2023-02-12T03:36:27;101949.59;;;-7.69;96.47
41254;BME280;26987;59.928;30.306;2023-02-12T03:39:01;101955.72;;;-7.70;96.28
41254;BME280;26987;59.928;30.306;2023-02-12T03:41:38;101944.97;;;-7.85;96.58
41254;BME280;26987;59.928;30.306;2023-02-12T03:44:10;101955.44;;;-7.63;95.83
41254;BME280;26987;59.928;30.306;2023-02-12T03:46:45;101885.41;;;-8.18;95.58
41254;BME280;26987;59.928;30.306;2023-02-12T03:49:22;101963.94;;;-7.81;95.59
41254;BME280;26987;59.928;30.306;2023-02-12T03:51:51;101961.44;;;-7.85;95.86
41254;BME280;26987;59.928;30.306;2023-02-12T03:54:20;101936.25;;;-8.08;96.05
41254;BME280;26987;59.928;30.306;2023-02-12T03:56:51;101972.00;;;-7.88;96.58
41254;BME280;26987;59.928;30.306;2023-02-12T03:59:21;101938.22;;;-8.15;96.65
41254;BME280;26987;59.928;30.306;2023-02-12T04:01:52;101971.34;;;-7.94;96.29
41254;BME280;26987;59.928;30.306;2023-02-12T04:04:22;101964.41;;;-7.94;96.86
41254;BME280;26987;59.928;30.306;2023-02-12T04:06:52;101970.59;;;-7.98;96.73
41254;BME280;26987;59.928;30.306;2023-02-12T04:09:21;101969.81;;;-8.00;96.98
41254;BME280;26987;59.928;30.306;2023-02-12T04:12:01;101976.44;;;-7.91;97.11
41254;BME280;26987;59.928;30.306;2023-02-12T04:14:37;101978.13;;;-7.90;97.25
41254;BME280;26987;59.928;30.306;2023-02-12T04:17:16;101981.50;;;-7.87;97.39
41254;BME280;26987;59.928;30.306;2023-02-12T04:19:57;101975.59;;;-7.92;97.45
41254;BME280;26987;59.928;30.306;2023-02-12T04:22:35;101989.97;;;-7.81;97.20
41254;BME280;26987;59.928;30.306;2023-02-12T04:25:17;101996.84;;;-7.79;96.69
41254;BME280;26987;59.928;30.306;2023-02-12T04:27:52;102001.25;;;-7.81;97.28
41254;BME280;26987;59.928;30.306;2023-02-12T04:30:26;101997.91;;;-7.85;97.24
41254;BME280;26987;59.928;30.306;2023-02-12T04:32:58;102008.09;;;-7.78;97.48
41254;BME280;26987;59.928;30.306;2023-02-12T04:35:31;101996.00;;;-7.79;97.40
41254;BME280;26987;59.928;30.306;2023-02-12T04:38:07;102002.06;;;-7.79;97.27
41254;BME280;26987;59.928;30.306;2023-02-12T04:40:38;102000.44;;;-7.83;97.39
41254;BME280;26987;59.928;30.306;2023-02-12T04:43:07;101996.22;;;-7.86;97.51
41254;BME280;26987;59.928;30.306;2023-02-12T04:45:36;101998.88;;;-7.87;97.71
41254;BME280;26987;59.928;30.306;2023-02-12T04:48:04;102002.00;;;-7.77;97.75
41254;BME280;26987;59.928;30.306;2023-02-12T04:50:38;102006.34;;;-7.78;97.33
41254;BME280;26987;59.928;30.306;2023-02-12T04:53:07;101877.91;;;-8.52;97.32
41254;BME280;26987;59.928;30.306;2023-02-12T04:55:35;102000.22;;;-7.77;97.78
41254;BME280;26987;59.928;30.306;2023-02-12T04:58:03;101990.78;;;-7.79;97.83
41254;BME280;26987;59.928;30.306;2023-02-12T05:00:31;101973.63;;;-7.85;98.00
41254;BME280;26987;59.928;30.306;2023-02-12T05:03:00;101967.41;;;-7.81;98.05
41254;BME280;26987;59.928;30.306;2023-02-12T05:05:27;101993.78;;;-7.66;98.15
41254;BME280;26987;59.928;30.306;2023-02-12T05:07:57;101984.38;;;-7.70;97.90
41254;BME280;26987;59.928;30.306;2023-02-12T05:10:24;101994.59;;;-7.64;97.47
41254;BME280;26987;59.928;30.306;2023-02-12T05:12:52;101992.78;;;-7.62;97.89
41254;BME280;26987;59.928;30.306;2023-02-12T05:15:21;101988.63;;;-7.68;97.82
41254;BME280;26987;59.928;30.306;2023-02-12T05:17:49;101991.75;;;-7.58;97.33
41254;BME280;26987;59.928;30.306;2023-02-12T05:20:20;102002.22;;;-7.60;97.68
41254;BME280;26987;59.928;30.306;2023-02-12T05:22:51;102003.09;;;-7.59;97.31
41254;BME280;26987;59.928;30.306;2023-02-12T05:25:20;102003.09;;;-7.59;97.44
41254;BME280;26987;59.928;30.306;2023-02-12T05:27:48;102011.47;;;-7.51;97.47
41254;BME280;26987;59.928;30.306;2023-02-12T05:30:16;102008.78;;;-7.49;97.12
41254;BME280;26987;59.928;30.306;2023-02-12T05:32:44;102020.81;;;-7.45;97.47
41254;BME280;26987;59.928;30.306;2023-02-12T05:35:12;102015.53;;;-7.43;97.11
41254;BME280;26987;59.928;30.306;2023-02-12T05:37:40;101996.03;;;-7.57;96.91
41254;BME280;26987;59.928;30.306;2023-02-12T05:40:08;102026.75;;;-7.41;96.98
41254;BME280;26987;59.928;30.306;2023-02-12T05:42:38;102026.69;;;-7.40;97.05
41254;BME280;26987;59.928;30.306;2023-02-12T05:45:06;102013.03;;;-7.47;96.81
41254;BME280;26987;59.928;30.306;2023-02-12T05:47:34;102038.75;;;-7.37;96.88
41254;BME280;26987;59.928;30.306;2023-02-12T05:50:02;102033.66;;;-7.40;96.78
41254;BME280;26987;59.928;30.306;2023-02-12T05:52:30;102036.97;;;-7.35;96.74
41254;BME280;26987;59.928;30.306;2023-02-12T05:54:58;102023.94;;;-7.35;96.64
41254;BME280;26987;59.928;30.306;2023-02-12T05:57:25;102024.69;;;-7.33;96.41
41254;BME280;26987;59.928;30.306;2023-02-12T05:59:55;102025.34;;;-7.26;96.19
41254;BME280;26987;59.928;30.306;2023-02-12T06:02:23;102024.34;;;-7.24;96.16
41254;BME280;26987;59.928;30.306;2023-02-12T06:04:51;102031.19;;;-7.21;95.90
41254;BME280;26987;59.928;30.306;2023-02-12T06:07:19;102027.88;;;-7.25;95.53
41254;BME280;26987;59.928;30.306;2023-02-12T06:09:46;102026.72;;;-7.17;96.06
41254;BME280;26987;59.928;30.306;2023-02-12T06:12:14;101981.19;;;-7.31;95.47
41254;BME280;26987;59.928;30.306;2023-02-12T06:14:42;102028.88;;;-7.05;95.01
41254;BME280;26987;59.928;30.306;2023-02-12T06:17:11;102020.00;;;-7.01;94.42
41254;BME280;26987;59.928;30.306;2023-02-12T06:19:39;102002.00;;;-7.07;94.30
41254;BME280;26987;59.928;30.306;2023-02-12T06:22:07;102017.28;;;-6.98;93.81
41254;BME280;26987;59.928;30.306;2023-02-12T06:24:35;102014.81;;;-7.01;93.38
41254;BME280;26987;59.928;30.306;2023-02-12T06:27:03;102012.97;;;-6.99;93.42
41254;BME280;26987;59.928;30.306;2023-02-12T06:29:30;102012.84;;;-6.96;94.06
41254;BME280;26987;59.928;30.306;2023-02-12T06:31:58;102016.25;;;-6.93;93.57
41254;BME280;26987;59.928;30.306;2023-02-12T06:34:27;101995.63;;;-7.00;93.36
41254;BME280;26987;59.928;30.306;2023-02-12T06:36:55;102015.44;;;-6.96;93.58
41254;BME280;26987;59.928;30.306;2023-02-12T06:39:23;102027.44;;;-6.90;93.02
41254;BME280;26987;59.928;30.306;2023-02-12T06:41:51;102011.22;;;-6.98;93.35
41254;BME280;26987;59.928;30.306;2023-02-12T06:44:19;102022.25;;;-6.91;93.48
41254;BME280;26987;59.928;30.306;2023-02-12T06:46:47;102008.19;;;-6.87;92.92
41254;BME280;26987;59.928;30.306;2023-02-12T06:49:15;101989.94;;;-6.87;92.72
41254;BME280;26987;59.928;30.306;2023-02-12T06:51:44;102019.19;;;-6.58;92.59
41254;BME280;26987;59.928;30.306;2023-02-12T06:54:13;102012.47;;;-6.64;92.47
41254;BME280;26987;59.928;30.306;2023-02-12T06:56:41;102020.78;;;-6.54;92.76
41254;BME280;26987;59.928;30.306;2023-02-12T06:59:12;102011.50;;;-6.61;92.20
41254;BME280;26987;59.928;30.306;2023-02-12T07:01:41;102027.88;;;-6.57;92.56
41254;BME280;26987;59.928;30.306;2023-02-12T07:04:10;102010.03;;;-6.68;93.08
41254;BME280;26987;59.928;30.306;2023-02-12T07:06:38;102025.31;;;-6.59;92.43
41254;BME280;26987;59.928;30.306;2023-02-12T07:09:07;102041.66;;;-6.54;92.55
41254;BME280;26987;59.928;30.306;2023-02-12T07:11:36;101996.59;;;-6.80;92.25
41254;BME280;26987;59.928;30.306;2023-02-12T07:14:04;102036.44;;;-6.54;92.42
41254;BME280;26987;59.928;30.306;2023-02-12T07:16:32;102048.38;;;-6.48;92.30
41254;BME280;26987;59.928;30.306;2023-02-12T07:19:00;102051.63;;;-6.43;91.93
41254;BME280;26987;59.928;30.306;2023-02-12T07:21:27;102060.34;;;-6.42;91.84
41254;BME280;26987;59.928;30.306;2023-02-12T07:23:56;102054.06;;;-6.38;92.04
41254;BME280;26987;59.928;30.306;2023-02-12T07:26:25;102059.22;;;-6.37;92.12
41254;BME280;26987;59.928;30.306;2023-02-12T07:28:53;102055.91;;;-6.40;92.59
41254;BME280;26987;59.928;30.306;2023-02-12T07:31:22;102074.44;;;-6.26;92.40
41254;BME280;26987;59.928;30.306;2023-02-12T07:33:53;102076.81;;;-6.19;92.85
41254;BME280;26987;59.928;30.306;2023-02-12T07:36:21;102073.28;;;-6.18;93.19
41254;BME280;26987;59.928;30.306;2023-02-12T07:38:50;102022.78;;;-6.40;93.26
41254;BME280;26987;59.928;30.306;2023-02-12T07:41:20;102091.59;;;-5.99;92.63
41254;BME280;26987;59.928;30.306;2023-02-12T07:43:54;102096.44;;;-5.90;92.51
41254;BME280;26987;59.928;30.306;2023-02-12T07:46:23;102090.16;;;-5.86;93.05
41254;BME280;26987;59.928;30.306;2023-02-12T07:48:55;102084.75;;;-5.81;93.14
41254;BME280;26987;59.928;30.306;2023-02-12T07:51:24;102080.06;;;-5.73;92.07
41254;BME280;26987;59.928;30.306;2023-02-12T07:53:53;102085.66;;;-5.61;91.87
41254;BME280;26987;59.928;30.306;2023-02-12T07:56:22;102059.16;;;-5.73;91.94
41254;BME280;26987;59.928;30.306;2023-02-12T07:58:52;102084.44;;;-5.54;91.75
41254;BME280;26987;59.928;30.306;2023-02-12T08:01:22;102079.94;;;-5.50;92.22
41254;BME280;26987;59.928;30.306;2023-02-12T08:03:52;102107.75;;;-5.28;91.49
41254;BME280;26987;59.928;30.306;2023-02-12T08:06:21;102108.31;;;-5.22;91.46
41254;BME280;26987;59.928;30.306;2023-02-12T08:08:50;102105.09;;;-5.08;91.85
41254;BME280;26987;59.928;30.306;2023-02-12T08:11:18;102095.03;;;-4.98;90.94
41254;BME280;26987;59.928;30.306;2023-02-12T08:13:47;102084.06;;;-4.87;91.00
41254;BME280;26987;59.928;30.306;2023-02-12T08:16:19;102078.81;;;-4.68;89.79
41254;BME280;26987;59.928;30.306;2023-02-12T08:18:48;102085.75;;;-4.49;89.56
41254;BME280;26987;59.928;30.306;2023-02-12T08:21:17;102081.38;;;-4.31;89.20
41254;BME280;26987;59.928;30.306;2023-02-12T08:23:45;102059.97;;;-4.21;88.32
41254;BME280;26987;59.928;30.306;2023-02-12T08:26:17;102068.97;;;-3.92;88.10
41254;BME280;26987;59.928;30.306;2023-02-12T08:28:47;102070.66;;;-3.73;86.78
41254;BME280;26987;59.928;30.306;2023-02-12T08:31:18;102031.25;;;-3.71;86.35
41254;BME280;26987;59.928;30.306;2023-02-12T08:33:47;102054.72;;;-3.36;84.96
41254;BME280;26987;59.928;30.306;2023-02-12T08:36:18;102060.69;;;-3.16;85.02
41254;BME280;26987;59.928;30.306;2023-02-12T08:38:47;102079.06;;;-3.00;83.69
41254;BME280;26987;59.928;30.306;2023-02-12T08:41:17;102086.41;;;-2.91;84.06
41254;BME280;26987;59.928;30.306;2023-02-12T08:43:45;102072.28;;;-2.88;83.70
41254;BME280;26987;59.928;30.306;2023-02-12T08:46:17;102075.59;;;-2.84;83.37
41254;BME280;26987;59.928;30.306;2023-02-12T08:48:46;102023.78;;;-3.13;82.64
41254;BME280;26987;59.928;30.306;2023-02-12T08:51:15;102045.13;;;-3.03;82.96
41254;BME280;26987;59.928;30.306;2023-02-12T08:53:46;102068.31;;;-2.79;83.11
41254;BME280;26987;59.928;30.306;2023-02-12T08:56:16;102050.84;;;-2.80;82.51
41254;BME280;26987;59.928;30.306;2023-02-12T08:58:44;102082.19;;;-2.61;82.64
41254;BME280;26987;59.928;30.306;2023-02-12T09:01:15;102098.25;;;-2.51;82.01
41254;BME280;26987;59.928;30.306;2023-02-12T09:03:45;102082.09;;;-2.59;82.57
41254;BME280;26987;59.928;30.306;2023-02-12T09:06:14;102103.56;;;-2.36;82.36
41254;BME280;26987;59.928;30.306;2023-02-12T09:08:42;102070.47;;;-2.55;81.66
41254;BME280;26987;59.928;30.306;2023-02-12T09:11:12;102090.06;;;-2.30;82.04
41254;BME280;26987;59.928;30.306;2023-02-12T09:13:42;102085.69;;;-2.30;82.55
41254;BME280;26987;59.928;30.306;2023-02-12T09:16:10;102060.91;;;-2.25;82.68
41254;BME280;26987;59.928;30.306;2023-02-12T09:18:39;102070.72;;;-2.13;82.34
41254;BME280;26987;59.928;30.306;2023-02-12T09:21:10;102076.44;;;-2.06;82.64
41254;BME280;26987;59.928;30.306;2023-02-12T09:23:39;102062.06;;;-2.15;82.36
41254;BME280;26987;59.928;30.306;2023-02-12T09:26:08;102078.31;;;-2.08;83.31
41254;BME280;26987;59.928;30.306;2023-02-12T09:28:37;102067.81;;;-2.08;83.52
41254;BME280;26987;59.928;30.306;2023-02-12T09:31:06;102049.59;;;-2.11;83.93
41254;BME280;26987;59.928;30.306;2023-02-12T09:33:34;102053.53;;;-2.04;84.50
41254;BME280;26987;59.928;30.306;2023-02-12T09:36:04;102050.38;;;-1.95;85.38
41254;BME280;26987;59.928;30.306;2023-02-12T09:38:33;102051.09;;;-1.93;85.07
41254;BME280;26987;59.928;30.306;2023-02-12T09:41:28;102055.09;;;-1.71;85.54
41254;BME280;26987;59.928;30.306;2023-02-12T09:44:06;102051.09;;;-1.93;85.41
41254;BME280;26987;59.928;30.306;2023-02-12T09:46:41;102048.09;;;-2.01;85.37
41254;BME280;26987;59.928;30.306;2023-02-12T09:49:20;102026.22;;;-2.01;86.35
41254;BME280;26987;59.928;30.306;2023-02-12T09:51:51;102017.69;;;-1.91;86.01
41254;BME280;26987;59.928;30.306;2023-02-12T09:54:23;102016.94;;;-1.78;85.70
41254;BME280;26987;59.928;30.306;2023-02-12T09:56:55;102013.63;;;-1.67;85.19
41254;BME280;26987;59.928;30.306;2023-02-12T09:59:31;102019.09;;;-1.56;85.16
41254;BME280;26987;59.928;30.306;2023-02-12T10:02:00;102012.63;;;-1.65;84.34
41254;BME280;26987;59.928;30.306;2023-02-12T10:04:28;102016.16;;;-1.66;84.71
41254;BME280;26987;59.928;30.306;2023-02-12T10:07:02;102001.25;;;-1.65;84.48
41254;BME280;26987;59.928;30.306;2023-02-12T10:09:50;102018.91;;;-1.53;84.90
41254;BME280;26987;59.928;30.306;2023-02-12T10:12:28;102018.16;;;-1.55;84.61
41254;BME280;26987;59.928;30.306;2023-02-12T10:15:16;102026.13;;;-1.56;85.03
41254;BME280;26987;59.928;30.306;2023-02-12T10:17:56;102018.72;;;-1.64;85.03
41254;BME280;26987;59.928;30.306;2023-02-12T10:20:39;102031.59;;;-1.59;85.10
41254;BME280;26987;59.928;30.306;2023-02-12T10:23:24;101999.38;;;-1.63;85.63
41254;BME280;26987;59.928;30.306;2023-02-12T10:26:00;102016.53;;;-1.43;84.58
41254;BME280;26987;59.928;30.306;2023-02-12T10:28:32;102029.84;;;-1.17;84.24
41254;BME280;26987;59.928;30.306;2023-02-12T10:31:04;102023.00;;;-0.92;83.62
41254;BME280;26987;59.928;30.306;2023-02-12T10:33:37;102012.63;;;-0.80;82.42
41254;BME280;26987;59.928;30.306;2023-02-12T10:36:13;102019.78;;;-0.69;82.21
41254;BME280;26987;59.928;30.306;2023-02-12T10:38:48;102025.31;;;-0.59;81.96
41254;BME280;26987;59.928;30.306;2023-02-12T10:41:18;102026.81;;;-0.55;81.27
41254;BME280;26987;59.928;30.306;2023-02-12T10:43:46;102017.22;;;-0.43;81.11
41254;BME280;26987;59.928;30.306;2023-02-12T10:46:15;102008.50;;;-0.44;80.96
41254;BME280;26987;59.928;30.306;2023-02-12T10:48:44;101988.75;;;-0.51;80.75
41254;BME280;26987;59.928;30.306;2023-02-12T10:51:29;101997.31;;;-0.34;81.38
41254;BME280;26987;59.928;30.306;2023-02-12T10:54:30;101993.53;;;-0.30;81.71
41254;BME280;26987;59.928;30.306;2023-02-12T10:57:05;101986.47;;;-0.43;81.34
41254;BME280;26987;59.928;30.306;2023-02-12T10:59:34;101984.44;;;-0.52;81.34
41254;BME280;26987;59.928;30.306;2023-02-12T11:02:03;101979.38;;;-0.55;81.70
41254;BME280;26987;59.928;30.306;2023-02-12T11:04:32;101988.84;;;-0.53;82.20
41254;BME280;26987;59.928;30.306;2023-02-12T11:07:02;101986.13;;;-0.51;82.18
41254;BME280;26987;59.928;30.306;2023-02-12T11:09:34;101985.19;;;-0.50;82.20
41254;BME280;26987;59.928;30.306;2023-02-12T11:12:04;101976.31;;;-0.49;82.02
41254;BME280;26987;59.928;30.306;2023-02-12T11:14:48;101968.22;;;-0.46;82.53
41254;BME280;26987;59.928;30.306;2023-02-12T11:17:23;101964.63;;;-0.45;82.88
41254;BME280;26987;59.928;30.306;2023-02-12T11:22:50;101965.88;;;-0.38;82.93
41254;BME280;26987;59.928;30.306;2023-02-12T11:25:19;101941.22;;;-0.49;82.92
41254;BME280;26987;59.928;30.306;2023-02-12T11:28:13;101948.38;;;-0.26;83.82
41254;BME280;26987;59.928;30.306;2023-02-12T11:30:49;101937.22;;;-0.29;83.47
41254;BME280;26987;59.928;30.306;2023-02-12T11:33:27;101944.72;;;-0.23;83.32
41254;BME280;26987;59.928;30.306;2023-02-12T11:35:57;101937.03;;;-0.26;83.02
41254;BME280;26987;59.928;30.306;2023-02-12T11:38:30;101932.38;;;-0.35;83.52
41254;BME280;26987;59.928;30.306;2023-02-12T11:41:03;101932.28;;;-0.34;84.02
41254;BME280;26987;59.928;30.306;2023-02-12T11:43:35;101936.28;;;-0.41;83.59
41254;BME280;26987;59.928;30.306;2023-02-12T11:46:06;101935.75;;;-0.33;84.03
41254;BME280;26987;59.928;30.306;2023-02-12T11:48:38;101938.28;;;-0.32;84.27
41254;BME280;26987;59.928;30.306;2023-02-12T11:51:17;101945.75;;;-0.26;84.23
41254;BME280;26987;59.928;30.306;2023-02-12T11:53:49;101940.38;;;-0.37;84.04
41254;BME280;26987;59.928;30.306;2023-02-12T11:56:17;101909.28;;;-0.58;84.08
41254;BME280;26987;59.928;30.306;2023-02-12T11:58:48;101922.88;;;-0.51;84.61
41254;BME280;26987;59.928;30.306;2023-02-12T12:01:20;101942.63;;;-0.44;84.79
41254;BME280;26987;59.928;30.306;2023-02-12T12:03:54;101930.34;;;-0.45;85.17
41254;BME280;26987;59.928;30.306;2023-02-12T12:06:30;101925.28;;;-0.48;85.63
41254;BME280;26987;59.928;30.306;2023-02-12T12:09:03;101908.97;;;-0.53;85.18
41254;BME280;26987;59.928;30.306;2023-02-12T12:11:40;101924.88;;;-0.42;85.29
41254;BME280;26987;59.928;30.306;2023-02-12T12:14:16;101904.00;;;-0.45;85.34
41254;BME280;26987;59.928;30.306;2023-02-12T12:16:52;101903.91;;;-0.43;85.51
41254;BME280;26987;59.928;30.306;2023-02-12T12:19:42;101900.75;;;-0.35;85.50
41254;BME280;26987;59.928;30.306;2023-02-12T12:22:30;101871.44;;;-0.44;85.32
41254;BME280;26987;59.928;30.306;2023-02-12T12:25:12;101887.47;;;-0.34;85.43
41254;BME280;26987;59.928;30.306;2023-02-12T12:28:00;101878.38;;;-0.30;85.24
41254;BME280;26987;59.928;30.306;2023-02-12T12:31:02;101872.47;;;-0.20;85.34
41254;BME280;26987;59.928;30.306;2023-02-12T12:33:38;101872.19;;;-0.29;84.82
41254;BME280;26987;59.928;30.306;2023-02-12T12:39:33;101856.13;;;-0.26;84.42
41254;BME280;26987;59.928;30.306;2023-02-12T12:45:24;101846.44;;;-0.25;84.84
41254;BME280;26987;59.928;30.306;2023-02-12T12:48:09;101841.22;;;-0.14;84.98
41254;BME280;26987;59.928;30.306;2023-02-12T12:50:51;101832.38;;;-0.13;84.59
41254;BME280;26987;59.928;30.306;2023-02-12T12:53:33;101829.00;;;-0.15;84.18
41254;BME280;26987;59.928;30.306;2023-02-12T12:56:28;101807.91;;;-0.15;84.20
41254;BME280;26987;59.928;30.306;2023-02-12T12:59:19;101815.81;;;-0.15;84.10
41254;BME280;26987;59.928;30.306;2023-02-12T13:02:02;101811.63;;;-0.17;84.15
41254;BME280;26987;59.928;30.306;2023-02-12T13:04:51;101820.03;;;-0.12;84.06
41254;BME280;26987;59.928;30.306;2023-02-12T13:07:37;101805.69;;;-0.08;84.26
41254;BME280;26987;59.928;30.306;2023-02-12T13:10:16;101796.66;;;-0.17;84.32
41254;BME280;26987;59.928;30.306;2023-02-12T13:13:08;101808.94;;;-0.04;84.79
41254;BME280;26987;59.928;30.306;2023-02-12T13:15:45;101798.81;;;-0.10;84.49
41254;BME280;26987;59.928;30.306;2023-02-12T13:18:26;101787.22;;;-0.08;84.43
41254;BME280;26987;59.928;30.306;2023-02-12T13:21:08;101787.44;;;-0.11;84.28